createdAt,value
2017-07-16T00:00:33.316Z,1019.26
2017-07-16T00:01:14.205Z,1019.23
2017-07-16T00:01:55.099Z,1019.24
2017-07-16T00:02:35.995Z,1019.23
2017-07-16T00:03:16.885Z,1019.24
2017-07-16T00:03:57.776Z,1019.25
2017-07-16T00:04:38.661Z,1019.24
2017-07-16T00:05:19.551Z,1019.21
2017-07-16T00:06:00.453Z,1019.21
2017-07-16T00:06:41.341Z,1019.19
2017-07-16T00:07:22.236Z,1019.2
2017-07-16T00:08:03.123Z,1019.22
2017-07-16T00:08:44.013Z,1019.21
2017-07-16T00:09:24.912Z,1019.2
2017-07-16T00:10:05.802Z,1019.2
2017-07-16T00:10:46.694Z,1019.19
2017-07-16T00:11:27.588Z,1019.16
2017-07-16T00:12:08.473Z,1019.18
2017-07-16T00:12:49.363Z,1019.15
2017-07-16T00:13:30.254Z,1019.18
2017-07-16T00:14:11.148Z,1019.2
2017-07-16T00:14:52.045Z,1019.22
2017-07-16T00:15:32.932Z,1019.23
2017-07-16T00:16:13.823Z,1019.23
2017-07-16T00:16:54.711Z,1019.23
2017-07-16T00:17:35.597Z,1019.26
2017-07-16T00:18:16.491Z,1019.27
2017-07-16T00:18:57.382Z,1019.24
2017-07-16T00:19:38.271Z,1019.24
2017-07-16T00:20:19.173Z,1019.27
2017-07-16T00:21:00.103Z,1019.28
2017-07-16T00:21:40.994Z,1019.26
2017-07-16T00:22:21.887Z,1019.26
2017-07-16T00:23:02.776Z,1019.27
2017-07-16T00:23:43.668Z,1019.3
2017-07-16T00:24:24.559Z,1019.27
2017-07-16T00:25:05.463Z,1019.25
2017-07-16T00:25:46.347Z,1019.26
2017-07-16T00:26:27.242Z,1019.26
2017-07-16T00:27:08.130Z,1019.27
2017-07-16T00:27:49.021Z,1019.23
2017-07-16T00:28:29.932Z,1019.25
2017-07-16T00:29:10.818Z,1019.26
2017-07-16T00:29:51.706Z,1019.23
2017-07-16T00:30:32.593Z,1019.19
2017-07-16T00:31:13.479Z,1019.22
2017-07-16T00:31:54.369Z,1019.25
2017-07-16T00:32:35.259Z,1019.21
2017-07-16T00:33:16.169Z,1019.25
2017-07-16T00:33:57.060Z,1019.22
2017-07-16T00:34:37.946Z,1019.23
2017-07-16T00:35:18.826Z,1019.23
2017-07-16T00:35:59.722Z,1019.22
2017-07-16T00:36:40.600Z,1019.21
2017-07-16T00:37:21.471Z,1019.22
2017-07-16T00:38:02.366Z,1019.22
2017-07-16T00:38:43.256Z,1019.25
2017-07-16T00:39:24.148Z,1019.21
2017-07-16T00:40:05.037Z,1019.21
2017-07-16T00:40:45.934Z,1019.2
2017-07-16T00:41:26.827Z,1019.21
2017-07-16T00:42:07.729Z,1019.22
2017-07-16T00:42:48.619Z,1019.25
2017-07-16T00:43:29.504Z,1019.27
2017-07-16T00:44:10.385Z,1019.26
2017-07-16T00:44:51.272Z,1019.26
2017-07-16T00:45:32.153Z,1019.26
2017-07-16T00:46:13.048Z,1019.32
2017-07-16T00:46:53.934Z,1019.33
2017-07-16T00:47:34.820Z,1019.29
2017-07-16T00:48:15.700Z,1019.29
2017-07-16T00:48:56.588Z,1019.29
2017-07-16T00:49:37.475Z,1019.26
2017-07-16T00:50:18.361Z,1019.25
2017-07-16T00:50:59.244Z,1019.33
2017-07-16T00:51:40.126Z,1019.28
2017-07-16T00:52:21.010Z,1019.32
2017-07-16T00:53:01.902Z,1019.32
2017-07-16T00:53:42.794Z,1019.31
2017-07-16T00:54:23.698Z,1019.32
2017-07-16T00:55:04.583Z,1019.32
2017-07-16T00:55:45.464Z,1019.32
2017-07-16T00:56:26.350Z,1019.31
2017-07-16T00:57:07.239Z,1019.31
2017-07-16T00:57:48.144Z,1019.32
2017-07-16T00:58:29.038Z,1019.31
2017-07-16T00:59:09.937Z,1019.31
2017-07-16T00:59:50.816Z,1019.29
2017-07-16T01:00:31.699Z,1019.32
2017-07-16T01:01:12.600Z,1019.31
2017-07-16T01:01:53.487Z,1019.33
2017-07-16T01:02:34.354Z,1019.31
2017-07-16T01:03:15.242Z,1019.33
2017-07-16T01:03:56.145Z,1019.33
2017-07-16T01:04:37.034Z,1019.31
2017-07-16T01:05:17.925Z,1019.32
2017-07-16T01:05:58.808Z,1019.29
2017-07-16T01:06:39.703Z,1019.27
2017-07-16T01:07:20.603Z,1019.27
2017-07-16T01:08:01.480Z,1019.25
2017-07-16T01:08:42.369Z,1019.26
2017-07-16T01:09:23.263Z,1019.25
2017-07-16T01:10:04.153Z,1019.24
2017-07-16T01:10:45.056Z,1019.25
2017-07-16T01:11:25.937Z,1019.26
2017-07-16T01:12:06.823Z,1019.26
2017-07-16T01:12:47.714Z,1019.29
2017-07-16T01:13:28.603Z,1019.25
2017-07-16T01:14:09.484Z,1019.27
2017-07-16T01:14:50.373Z,1019.25
2017-07-16T01:15:31.266Z,1019.26
2017-07-16T01:16:12.140Z,1019.29
2017-07-16T01:16:53.020Z,1019.27
2017-07-16T01:17:33.907Z,1019.27
2017-07-16T01:18:14.785Z,1019.27
2017-07-16T01:18:55.676Z,1019.26
2017-07-16T01:19:36.565Z,1019.25
2017-07-16T01:20:17.459Z,1019.23
2017-07-16T01:20:58.340Z,1019.24
2017-07-16T01:21:39.235Z,1019.24
2017-07-16T01:22:20.120Z,1019.24
2017-07-16T01:23:01.015Z,1019.26
2017-07-16T01:23:41.901Z,1019.25
2017-07-16T01:24:22.785Z,1019.22
2017-07-16T01:25:03.671Z,1019.21
2017-07-16T01:25:44.557Z,1019.22
2017-07-16T01:26:25.446Z,1019.21
2017-07-16T01:27:06.330Z,1019.21
2017-07-16T01:27:47.223Z,1019.23
2017-07-16T01:28:28.127Z,1019.22
2017-07-16T01:29:09.006Z,1019.18
2017-07-16T01:29:49.896Z,1019.24
2017-07-16T01:30:30.780Z,1019.21
2017-07-16T01:31:11.668Z,1019.18
2017-07-16T01:31:52.574Z,1019.21
2017-07-16T01:32:33.463Z,1019.18
2017-07-16T01:33:14.357Z,1019.2
2017-07-16T01:33:55.249Z,1019.19
2017-07-16T01:34:36.132Z,1019.22
2017-07-16T01:35:17.015Z,1019.2
2017-07-16T01:35:57.905Z,1019.2
2017-07-16T01:36:38.794Z,1019.2
2017-07-16T01:37:19.686Z,1019.22
2017-07-16T01:38:00.569Z,1019.21
2017-07-16T01:38:41.463Z,1019.19
2017-07-16T01:39:22.356Z,1019.2
2017-07-16T01:40:03.262Z,1019.2
2017-07-16T01:40:44.148Z,1019.15
2017-07-16T01:41:25.042Z,1019.21
2017-07-16T01:42:05.930Z,1019.15
2017-07-16T01:42:46.816Z,1019.22
2017-07-16T01:43:27.708Z,1019.19
2017-07-16T01:44:08.599Z,1019.18
2017-07-16T01:44:49.505Z,1019.23
2017-07-16T01:45:30.393Z,1019.19
2017-07-16T01:46:11.281Z,1019.21
2017-07-16T01:46:52.167Z,1019.2
2017-07-16T01:47:33.059Z,1019.23
2017-07-16T01:48:13.983Z,1019.24
2017-07-16T01:48:54.887Z,1019.22
2017-07-16T01:49:35.801Z,1019.23
2017-07-16T01:50:16.692Z,1019.22
2017-07-16T01:50:57.577Z,1019.23
2017-07-16T01:51:38.469Z,1019.25
2017-07-16T01:53:16.889Z,1019.27
2017-07-16T01:53:57.778Z,1019.22
2017-07-16T01:54:38.669Z,1019.22
2017-07-16T01:55:19.552Z,1019.24
2017-07-16T01:56:00.441Z,1019.21
2017-07-16T01:56:41.325Z,1019.2
2017-07-16T01:57:22.215Z,1019.23
2017-07-16T01:58:03.092Z,1019.26
2017-07-16T01:58:43.986Z,1019.26
2017-07-16T01:59:24.878Z,1019.26
2017-07-16T02:00:05.762Z,1019.27
2017-07-16T02:00:46.669Z,1019.29
2017-07-16T02:01:27.547Z,1019.27
2017-07-16T02:02:08.438Z,1019.25
2017-07-16T02:02:49.327Z,1019.24
2017-07-16T02:03:30.227Z,1019.19
2017-07-16T02:04:11.113Z,1019.23
2017-07-16T02:04:52.000Z,1019.22
2017-07-16T02:05:32.896Z,1019.23
2017-07-16T02:06:13.780Z,1019.22
2017-07-16T02:06:54.670Z,1019.23
2017-07-16T02:07:35.559Z,1019.19
2017-07-16T02:08:16.453Z,1019.18
2017-07-16T02:08:57.331Z,1019.18
2017-07-16T02:09:38.222Z,1019.18
2017-07-16T02:10:19.110Z,1019.18
2017-07-16T02:10:59.997Z,1019.16
2017-07-16T02:11:40.889Z,1019.18
2017-07-16T02:12:21.780Z,1019.2
2017-07-16T02:13:02.668Z,1019.16
2017-07-16T02:13:43.542Z,1019.15
2017-07-16T02:14:24.460Z,1019.15
2017-07-16T02:15:05.349Z,1019.2
2017-07-16T02:15:46.235Z,1019.19
2017-07-16T02:16:27.125Z,1019.16
2017-07-16T02:17:08.027Z,1019.19
2017-07-16T02:17:48.924Z,1019.18
2017-07-16T02:18:29.811Z,1019.18
2017-07-16T02:19:10.693Z,1019.13
2017-07-16T02:19:51.581Z,1019.17
2017-07-16T02:20:32.472Z,1019.19
2017-07-16T02:21:13.362Z,1019.17
2017-07-16T02:21:54.245Z,1019.2
2017-07-16T02:22:35.132Z,1019.24
2017-07-16T02:23:16.017Z,1019.21
2017-07-16T02:23:56.906Z,1019.19
2017-07-16T02:24:37.796Z,1019.16
2017-07-16T02:25:18.692Z,1019.18
2017-07-16T02:25:59.575Z,1019.22
2017-07-16T02:26:40.468Z,1019.2
2017-07-16T02:27:21.352Z,1019.2
2017-07-16T02:28:02.237Z,1019.21
2017-07-16T02:28:43.132Z,1019.22
2017-07-16T02:29:24.019Z,1019.21
2017-07-16T02:30:04.905Z,1019.21
2017-07-16T02:30:45.792Z,1019.21
2017-07-16T02:31:26.685Z,1019.2
2017-07-16T02:32:07.564Z,1019.22
2017-07-16T02:32:48.450Z,1019.21
2017-07-16T02:33:29.336Z,1019.22
2017-07-16T02:34:10.224Z,1019.19
2017-07-16T02:34:51.151Z,1019.26
2017-07-16T02:35:32.045Z,1019.23
2017-07-16T02:36:12.932Z,1019.25
2017-07-16T02:36:53.817Z,1019.22
2017-07-16T02:37:34.704Z,1019.24
2017-07-16T02:38:15.607Z,1019.27
2017-07-16T02:38:56.477Z,1019.29
2017-07-16T02:39:37.371Z,1019.29
2017-07-16T02:40:18.253Z,1019.29
2017-07-16T02:40:59.140Z,1019.27
2017-07-16T02:41:40.028Z,1019.28
2017-07-16T02:42:20.915Z,1019.23
2017-07-16T02:43:01.803Z,1019.26
2017-07-16T02:43:42.686Z,1019.26
2017-07-16T02:44:23.572Z,1019.3
2017-07-16T02:45:04.462Z,1019.28
2017-07-16T02:45:45.353Z,1019.26
2017-07-16T02:46:26.229Z,1019.26
2017-07-16T02:47:07.114Z,1019.3
2017-07-16T02:47:47.996Z,1019.26
2017-07-16T02:48:28.886Z,1019.25
2017-07-16T02:49:09.782Z,1019.27
2017-07-16T02:49:50.665Z,1019.26
2017-07-16T02:50:31.546Z,1019.24
2017-07-16T02:51:12.432Z,1019.23
2017-07-16T02:51:53.317Z,1019.24
2017-07-16T02:52:34.203Z,1019.27
2017-07-16T02:53:15.090Z,1019.26
2017-07-16T02:53:55.978Z,1019.25
2017-07-16T02:54:36.869Z,1019.26
2017-07-16T02:55:17.749Z,1019.25
2017-07-16T02:55:58.675Z,1019.23
2017-07-16T02:56:39.532Z,1019.25
2017-07-16T02:57:20.414Z,1019.24
2017-07-16T02:58:01.303Z,1019.26
2017-07-16T02:58:42.209Z,1019.31
2017-07-16T02:59:23.091Z,1019.22
2017-07-16T03:00:03.977Z,1019.27
2017-07-16T03:00:44.863Z,1019.28
2017-07-16T03:01:25.750Z,1019.31
2017-07-16T03:02:06.640Z,1019.28
2017-07-16T03:02:47.530Z,1019.25
2017-07-16T03:03:28.418Z,1019.26
2017-07-16T03:04:09.358Z,1019.28
2017-07-16T03:04:50.190Z,1019.28
2017-07-16T03:05:31.084Z,1019.26
2017-07-16T03:06:11.981Z,1019.29
2017-07-16T03:06:52.856Z,1019.28
2017-07-16T03:07:33.747Z,1019.3
2017-07-16T03:08:14.632Z,1019.26
2017-07-16T03:08:55.513Z,1019.29
2017-07-16T03:09:36.399Z,1019.28
2017-07-16T03:10:17.298Z,1019.34
2017-07-16T03:10:58.175Z,1019.33
2017-07-16T03:11:39.063Z,1019.35
2017-07-16T03:12:19.955Z,1019.36
2017-07-16T03:13:00.841Z,1019.36
2017-07-16T03:13:41.736Z,1019.33
2017-07-16T03:14:22.645Z,1019.4
2017-07-16T03:15:03.540Z,1019.38
2017-07-16T03:15:44.415Z,1019.38
2017-07-16T03:16:25.304Z,1019.4
2017-07-16T03:17:06.209Z,1019.36
2017-07-16T03:17:47.073Z,1019.37
2017-07-16T03:18:27.963Z,1019.38
2017-07-16T03:19:08.856Z,1019.37
2017-07-16T03:19:49.742Z,1019.33
2017-07-16T03:20:30.625Z,1019.32
2017-07-16T03:21:11.508Z,1019.34
2017-07-16T03:21:52.394Z,1019.35
2017-07-16T03:22:33.275Z,1019.33
2017-07-16T03:23:14.154Z,1019.33
2017-07-16T03:23:55.041Z,1019.35
2017-07-16T03:24:35.938Z,1019.33
2017-07-16T03:25:16.818Z,1019.36
2017-07-16T03:25:57.708Z,1019.34
2017-07-16T03:26:38.609Z,1019.35
2017-07-16T03:27:19.487Z,1019.34
2017-07-16T03:28:00.367Z,1019.33
2017-07-16T03:28:41.254Z,1019.35
2017-07-16T03:29:22.148Z,1019.36
2017-07-16T03:30:03.029Z,1019.32
2017-07-16T03:30:43.920Z,1019.31
2017-07-16T03:31:24.810Z,1019.36
2017-07-16T03:32:05.700Z,1019.34
2017-07-16T03:32:46.577Z,1019.33
2017-07-16T03:33:27.469Z,1019.31
2017-07-16T03:34:08.355Z,1019.3
2017-07-16T03:34:49.237Z,1019.3
2017-07-16T03:35:30.148Z,1019.28
2017-07-16T03:36:11.051Z,1019.31
2017-07-16T03:36:51.931Z,1019.3
2017-07-16T03:37:32.820Z,1019.29
2017-07-16T03:38:13.708Z,1019.34
2017-07-16T03:38:54.583Z,1019.36
2017-07-16T03:39:35.462Z,1019.36
2017-07-16T03:40:16.356Z,1019.37
2017-07-16T03:40:57.244Z,1019.35
2017-07-16T03:41:38.129Z,1019.37
2017-07-16T03:42:19.013Z,1019.38
2017-07-16T03:42:59.900Z,1019.38
2017-07-16T03:43:40.780Z,1019.38
2017-07-16T03:44:21.662Z,1019.39
2017-07-16T03:45:02.554Z,1019.4
2017-07-16T03:45:43.433Z,1019.36
2017-07-16T03:46:24.414Z,1019.39
2017-07-16T03:47:05.200Z,1019.36
2017-07-16T03:47:46.098Z,1019.38
2017-07-16T03:48:26.990Z,1019.38
2017-07-16T03:49:07.859Z,1019.36
2017-07-16T03:49:48.751Z,1019.35
2017-07-16T03:50:29.643Z,1019.37
2017-07-16T03:51:10.524Z,1019.38
2017-07-16T03:51:51.410Z,1019.36
2017-07-16T03:52:32.315Z,1019.3
2017-07-16T03:53:13.206Z,1019.26
2017-07-16T03:53:54.086Z,1019.25
2017-07-16T03:54:34.966Z,1019.24
2017-07-16T03:55:15.852Z,1019.28
2017-07-16T03:55:56.738Z,1019.22
2017-07-16T03:56:37.620Z,1019.23
2017-07-16T03:57:18.507Z,1019.25
2017-07-16T03:57:59.401Z,1019.24
2017-07-16T03:58:40.279Z,1019.27
2017-07-16T03:59:21.175Z,1019.31
2017-07-16T04:00:02.063Z,1019.32
2017-07-16T04:00:42.951Z,1019.31
2017-07-16T04:01:23.840Z,1019.34
2017-07-16T04:02:04.715Z,1019.34
2017-07-16T04:02:45.596Z,1019.37
2017-07-16T04:03:26.488Z,1019.37
2017-07-16T04:04:07.365Z,1019.37
2017-07-16T04:04:48.260Z,1019.4
2017-07-16T04:05:29.143Z,1019.39
2017-07-16T04:07:07.575Z,1019.4
2017-07-16T04:07:48.459Z,1019.42
2017-07-16T04:08:29.356Z,1019.38
2017-07-16T04:09:10.252Z,1019.41
2017-07-16T04:09:51.144Z,1019.39
2017-07-16T04:10:32.027Z,1019.4
2017-07-16T04:11:12.920Z,1019.38
2017-07-16T04:11:53.811Z,1019.36
2017-07-16T04:12:34.700Z,1019.36
2017-07-16T04:13:15.592Z,1019.34
2017-07-16T04:13:56.473Z,1019.37
2017-07-16T04:14:37.352Z,1019.37
2017-07-16T04:15:18.253Z,1019.36
2017-07-16T04:15:59.142Z,1019.31
2017-07-16T04:17:33.412Z,1019.32
2017-07-16T04:18:14.297Z,1019.28
2017-07-16T04:18:55.193Z,1019.28
2017-07-16T04:19:36.092Z,1019.3
2017-07-16T04:20:16.983Z,1019.31
2017-07-16T04:20:57.866Z,1019.3
2017-07-16T04:21:38.763Z,1019.3
2017-07-16T04:22:19.648Z,1019.29
2017-07-16T04:23:00.529Z,1019.27
2017-07-16T04:23:41.422Z,1019.33
2017-07-16T04:24:22.327Z,1019.34
2017-07-16T04:25:03.188Z,1019.31
2017-07-16T04:25:44.070Z,1019.31
2017-07-16T04:26:24.953Z,1019.33
2017-07-16T04:27:05.857Z,1019.36
2017-07-16T04:27:46.732Z,1019.36
2017-07-16T04:28:27.609Z,1019.39
2017-07-16T04:29:08.522Z,1019.36
2017-07-16T04:29:49.395Z,1019.34
2017-07-16T04:30:30.264Z,1019.36
2017-07-16T04:31:11.146Z,1019.36
2017-07-16T04:31:52.049Z,1019.39
2017-07-16T04:32:32.929Z,1019.37
2017-07-16T04:33:13.805Z,1019.37
2017-07-16T04:33:54.697Z,1019.4
2017-07-16T04:34:35.584Z,1019.39
2017-07-16T04:35:16.477Z,1019.42
2017-07-16T04:35:57.356Z,1019.4
2017-07-16T04:36:38.263Z,1019.37
2017-07-16T04:37:19.121Z,1019.38
2017-07-16T04:38:00.025Z,1019.36
2017-07-16T04:38:40.922Z,1019.37
2017-07-16T04:39:21.814Z,1019.37
2017-07-16T04:40:02.678Z,1019.34
2017-07-16T04:40:43.566Z,1019.37
2017-07-16T04:41:24.465Z,1019.35
2017-07-16T04:42:05.352Z,1019.36
2017-07-16T04:42:46.236Z,1019.35
2017-07-16T04:43:27.148Z,1019.36
2017-07-16T04:44:08.035Z,1019.4
2017-07-16T04:44:48.913Z,1019.4
2017-07-16T04:45:29.814Z,1019.42
2017-07-16T04:46:10.694Z,1019.4
2017-07-16T04:46:51.613Z,1019.4
2017-07-16T04:47:32.495Z,1019.41
2017-07-16T04:48:13.406Z,1019.41
2017-07-16T04:48:54.302Z,1019.4
2017-07-16T04:49:35.184Z,1019.39
2017-07-16T04:50:16.076Z,1019.4
2017-07-16T04:50:56.959Z,1019.41
2017-07-16T04:51:37.867Z,1019.44
2017-07-16T04:52:18.750Z,1019.44
2017-07-16T04:52:59.638Z,1019.45
2017-07-16T04:53:40.541Z,1019.45
2017-07-16T04:54:21.411Z,1019.43
2017-07-16T04:55:02.306Z,1019.45
2017-07-16T04:55:43.199Z,1019.47
2017-07-16T04:56:24.078Z,1019.46
2017-07-16T04:57:04.955Z,1019.48
2017-07-16T04:57:45.848Z,1019.5
2017-07-16T04:58:26.736Z,1019.53
2017-07-16T04:59:07.617Z,1019.52
2017-07-16T04:59:48.505Z,1019.5
2017-07-16T05:00:29.389Z,1019.55
2017-07-16T05:01:10.278Z,1019.51
2017-07-16T05:01:51.155Z,1019.51
2017-07-16T05:02:32.038Z,1019.49
2017-07-16T05:03:12.929Z,1019.51
2017-07-16T05:03:53.821Z,1019.49
2017-07-16T05:04:34.703Z,1019.5
2017-07-16T05:05:15.583Z,1019.53
2017-07-16T05:05:56.476Z,1019.53
2017-07-16T05:06:37.396Z,1019.52
2017-07-16T05:07:18.252Z,1019.54
2017-07-16T05:07:59.147Z,1019.52
2017-07-16T05:08:40.046Z,1019.56
2017-07-16T05:09:20.921Z,1019.58
2017-07-16T05:10:01.809Z,1019.54
2017-07-16T05:10:42.697Z,1019.56
2017-07-16T05:11:23.580Z,1019.55
2017-07-16T05:12:04.469Z,1019.58
2017-07-16T05:12:45.360Z,1019.56
2017-07-16T05:13:26.247Z,1019.61
2017-07-16T05:14:07.134Z,1019.62
2017-07-16T05:14:48.020Z,1019.58
2017-07-16T05:15:28.922Z,1019.61
2017-07-16T05:16:09.810Z,1019.6
2017-07-16T05:16:50.695Z,1019.61
2017-07-16T05:17:31.585Z,1019.6
2017-07-16T05:18:12.516Z,1019.6
2017-07-16T05:18:53.380Z,1019.61
2017-07-16T05:19:34.280Z,1019.56
2017-07-16T05:20:15.163Z,1019.55
2017-07-16T05:20:56.050Z,1019.57
2017-07-16T05:21:36.950Z,1019.56
2017-07-16T05:22:17.854Z,1019.58
2017-07-16T05:22:58.752Z,1019.56
2017-07-16T05:23:39.637Z,1019.57
2017-07-16T05:24:20.525Z,1019.56
2017-07-16T05:25:01.420Z,1019.58
2017-07-16T05:25:42.315Z,1019.58
2017-07-16T05:26:23.215Z,1019.62
2017-07-16T05:27:04.104Z,1019.61
2017-07-16T05:27:44.998Z,1019.63
2017-07-16T05:28:25.895Z,1019.62
2017-07-16T05:29:06.814Z,1019.62
2017-07-16T05:29:47.673Z,1019.61
2017-07-16T05:30:28.564Z,1019.63
2017-07-16T05:31:09.455Z,1019.64
2017-07-16T05:31:50.341Z,1019.61
2017-07-16T05:32:31.230Z,1019.58
2017-07-16T05:33:12.121Z,1019.6
2017-07-16T05:33:53.010Z,1019.6
2017-07-16T05:34:33.899Z,1019.58
2017-07-16T05:35:14.797Z,1019.54
2017-07-16T05:35:55.684Z,1019.59
2017-07-16T05:36:36.593Z,1019.6
2017-07-16T05:37:17.481Z,1019.62
2017-07-16T05:37:58.363Z,1019.65
2017-07-16T05:38:39.274Z,1019.62
2017-07-16T05:39:20.167Z,1019.66
2017-07-16T05:40:01.055Z,1019.7
2017-07-16T05:40:41.946Z,1019.68
2017-07-16T05:41:22.831Z,1019.69
2017-07-16T05:42:03.716Z,1019.69
2017-07-16T05:42:44.594Z,1019.7
2017-07-16T05:43:25.490Z,1019.7
2017-07-16T05:44:06.380Z,1019.71
2017-07-16T05:44:47.270Z,1019.7
2017-07-16T05:45:28.169Z,1019.75
2017-07-16T05:46:09.058Z,1019.73
2017-07-16T05:46:49.949Z,1019.73
2017-07-16T05:47:30.833Z,1019.73
2017-07-16T05:48:11.719Z,1019.76
2017-07-16T05:48:52.612Z,1019.76
2017-07-16T05:49:33.507Z,1019.74
2017-07-16T05:50:14.398Z,1019.77
2017-07-16T05:50:55.307Z,1019.79
2017-07-16T05:51:36.228Z,1019.74
2017-07-16T05:52:17.097Z,1019.76
2017-07-16T05:52:57.978Z,1019.75
2017-07-16T05:53:38.883Z,1019.78
2017-07-16T05:54:19.770Z,1019.74
2017-07-16T05:59:06.063Z,1019.79
2017-07-16T06:10:40.719Z,1019.75
2017-07-16T06:13:42.384Z,1019.73
2017-07-16T06:14:23.280Z,1019.76
2017-07-16T06:15:04.176Z,1019.76
2017-07-16T06:15:45.076Z,1019.77
2017-07-16T06:16:25.979Z,1019.78
2017-07-16T06:17:06.872Z,1019.76
2017-07-16T06:17:47.774Z,1019.81
2017-07-16T06:18:28.658Z,1019.8
2017-07-16T06:19:09.556Z,1019.79
2017-07-16T06:19:50.451Z,1019.8
2017-07-16T06:20:31.337Z,1019.8
2017-07-16T06:21:12.242Z,1019.78
2017-07-16T06:21:53.128Z,1019.79
2017-07-16T06:22:34.029Z,1019.82
2017-07-16T06:23:14.926Z,1019.85
2017-07-16T06:23:55.834Z,1019.82
2017-07-16T06:24:36.739Z,1019.79
2017-07-16T06:25:17.629Z,1019.84
2017-07-16T06:25:58.527Z,1019.82
2017-07-16T06:26:39.419Z,1019.75
2017-07-16T06:27:20.310Z,1019.79
2017-07-16T06:28:01.214Z,1019.82
2017-07-16T06:28:42.100Z,1019.83
2017-07-16T06:29:23.001Z,1019.82
2017-07-16T06:30:03.895Z,1019.81
2017-07-16T06:30:44.789Z,1019.81
2017-07-16T06:31:25.677Z,1019.83
2017-07-16T06:32:06.580Z,1019.86
2017-07-16T06:32:47.483Z,1019.84
2017-07-16T06:33:28.382Z,1019.84
2017-07-16T06:34:09.276Z,1019.86
2017-07-16T06:34:50.173Z,1019.87
2017-07-16T06:35:31.080Z,1019.84
2017-07-16T06:36:11.976Z,1019.85
2017-07-16T06:36:52.887Z,1019.85
2017-07-16T06:37:33.808Z,1019.88
2017-07-16T06:38:14.711Z,1019.83
2017-07-16T06:38:55.616Z,1019.87
2017-07-16T06:39:36.510Z,1019.85
2017-07-16T06:40:17.409Z,1019.85
2017-07-16T06:40:58.305Z,1019.87
2017-07-16T06:41:39.204Z,1019.83
2017-07-16T06:42:20.098Z,1019.88
2017-07-16T06:43:00.993Z,1019.83
2017-07-16T06:43:41.898Z,1019.84
2017-07-16T06:44:22.795Z,1019.85
2017-07-16T06:45:03.700Z,1019.87
2017-07-16T06:45:44.603Z,1019.86
2017-07-16T06:46:25.496Z,1019.82
2017-07-16T06:47:06.412Z,1019.83
2017-07-16T06:47:47.307Z,1019.86
2017-07-16T06:48:28.209Z,1019.87
2017-07-16T06:49:09.097Z,1019.85
2017-07-16T06:49:50.007Z,1019.85
2017-07-16T06:50:30.900Z,1019.83
2017-07-16T06:51:11.809Z,1019.86
2017-07-16T06:51:52.715Z,1019.85
2017-07-16T06:52:33.615Z,1019.86
2017-07-16T06:53:14.513Z,1019.87
2017-07-16T06:53:55.404Z,1019.86
2017-07-16T06:54:36.303Z,1019.84
2017-07-16T06:55:17.229Z,1019.88
2017-07-16T06:55:58.121Z,1019.88
2017-07-16T06:56:39.024Z,1019.87
2017-07-16T06:57:19.918Z,1019.88
2017-07-16T06:58:00.825Z,1019.89
2017-07-16T06:58:41.702Z,1019.96
2017-07-16T06:59:22.607Z,1019.93
2017-07-16T07:00:03.510Z,1019.95
2017-07-16T07:00:44.438Z,1019.98
2017-07-16T07:01:25.334Z,1019.97
2017-07-16T07:02:06.232Z,1019.92
2017-07-16T07:02:47.126Z,1019.97
2017-07-16T07:03:28.032Z,1019.97
2017-07-16T07:04:08.925Z,1019.95
2017-07-16T07:04:49.820Z,1019.94
2017-07-16T07:05:30.716Z,1019.95
2017-07-16T07:06:11.627Z,1019.92
2017-07-16T07:06:52.534Z,1019.94
2017-07-16T07:07:33.440Z,1019.93
2017-07-16T07:08:14.335Z,1019.98
2017-07-16T07:08:55.229Z,1019.94
2017-07-16T07:09:36.128Z,1019.96
2017-07-16T07:10:17.021Z,1019.98
2017-07-16T07:10:57.917Z,1019.97
2017-07-16T07:11:38.818Z,1019.99
2017-07-16T07:12:19.725Z,1019.99
2017-07-16T07:13:00.617Z,1019.96
2017-07-16T07:13:41.512Z,1019.99
2017-07-16T07:14:22.414Z,1019.98
2017-07-16T07:15:03.312Z,1020.01
2017-07-16T07:15:44.228Z,1020.01
2017-07-16T07:16:25.133Z,1020.01
2017-07-16T07:17:06.032Z,1019.96
2017-07-16T07:17:46.962Z,1019.94
2017-07-16T07:18:27.901Z,1019.96
2017-07-16T07:19:08.765Z,1019.93
2017-07-16T07:19:49.679Z,1019.96
2017-07-16T07:20:30.571Z,1019.94
2017-07-16T07:21:11.483Z,1019.91
2017-07-16T07:21:52.376Z,1019.93
2017-07-16T07:22:33.277Z,1019.95
2017-07-16T07:23:14.177Z,1019.94
2017-07-16T07:23:55.074Z,1019.92
2017-07-16T07:24:35.983Z,1019.91
2017-07-16T07:25:16.877Z,1019.94
2017-07-16T07:25:57.783Z,1019.89
2017-07-16T07:26:38.690Z,1019.97
2017-07-16T07:27:19.589Z,1019.97
2017-07-16T07:28:00.482Z,1019.95
2017-07-16T07:28:41.389Z,1019.96
2017-07-16T07:29:22.281Z,1019.99
2017-07-16T07:30:03.211Z,1019.95
2017-07-16T07:30:44.117Z,1019.88
2017-07-16T07:31:25.019Z,1019.94
2017-07-16T07:32:05.911Z,1019.94
2017-07-16T07:32:46.821Z,1019.91
2017-07-16T07:33:27.721Z,1019.94
2017-07-16T07:34:08.618Z,1019.94
2017-07-16T07:34:49.522Z,1019.88
2017-07-16T07:35:30.429Z,1019.9
2017-07-16T07:36:11.310Z,1019.91
2017-07-16T07:36:52.206Z,1019.91
2017-07-16T07:37:33.103Z,1019.92
2017-07-16T07:38:14.009Z,1019.92
2017-07-16T07:38:54.898Z,1019.9
2017-07-16T07:39:35.808Z,1019.94
2017-07-16T07:40:16.708Z,1019.93
2017-07-16T07:40:57.658Z,1019.97
2017-07-16T07:41:38.556Z,1019.98
2017-07-16T07:42:19.460Z,1019.97
2017-07-16T07:43:00.351Z,1019.94
2017-07-16T07:43:41.253Z,1019.89
2017-07-16T07:44:22.147Z,1019.91
2017-07-16T07:45:03.057Z,1019.93
2017-07-16T07:45:43.955Z,1019.89
2017-07-16T07:46:24.867Z,1019.91
2017-07-16T07:47:05.776Z,1019.92
2017-07-16T07:47:46.666Z,1019.91
2017-07-16T07:48:27.570Z,1019.91
2017-07-16T07:50:21.250Z,1019.94
2017-07-16T07:51:02.143Z,1019.95
2017-07-16T07:51:43.055Z,1019.97
2017-07-16T07:52:23.940Z,1019.96
2017-07-16T07:53:04.848Z,1019.94
2017-07-16T07:53:45.751Z,1019.92
2017-07-16T07:54:26.652Z,1019.93
2017-07-16T07:55:07.549Z,1019.92
2017-07-16T07:55:48.454Z,1019.93
2017-07-16T07:56:29.350Z,1019.91
2017-07-16T07:57:10.248Z,1019.9
2017-07-16T07:57:51.158Z,1019.86
2017-07-16T07:58:32.058Z,1019.9
2017-07-16T07:59:12.968Z,1019.92
2017-07-16T07:59:53.866Z,1019.96
2017-07-16T08:00:34.774Z,1019.98
2017-07-16T08:01:15.675Z,1019.96
2017-07-16T08:01:56.579Z,1019.99
2017-07-16T08:02:37.480Z,1019.96
2017-07-16T08:03:18.376Z,1019.99
2017-07-16T08:03:59.307Z,1019.97
2017-07-16T08:04:40.186Z,1019.97
2017-07-16T08:05:21.070Z,1019.95
2017-07-16T08:06:01.977Z,1019.94
2017-07-16T08:06:42.879Z,1019.97
2017-07-16T08:07:23.805Z,1020.01
2017-07-16T08:08:04.692Z,1019.98
2017-07-16T08:08:45.631Z,1020.03
2017-07-16T08:09:26.537Z,1019.99
2017-07-16T08:10:07.447Z,1020.02
2017-07-16T08:10:48.342Z,1019.95
2017-07-16T08:11:29.240Z,1019.95
2017-07-16T08:12:10.155Z,1019.97
2017-07-16T08:12:51.062Z,1019.94
2017-07-16T08:13:31.971Z,1019.94
2017-07-16T08:14:12.876Z,1019.95
2017-07-16T08:14:53.779Z,1019.88
2017-07-16T08:15:34.686Z,1019.9
2017-07-16T08:16:15.589Z,1019.92
2017-07-16T08:16:56.504Z,1019.93
2017-07-16T08:17:37.415Z,1019.92
2017-07-16T08:18:18.309Z,1019.94
2017-07-16T08:18:59.233Z,1019.91
2017-07-16T08:19:40.138Z,1019.91
2017-07-16T08:20:21.034Z,1019.9
2017-07-16T08:21:01.943Z,1019.91
2017-07-16T08:21:42.846Z,1019.87
2017-07-16T08:22:23.749Z,1019.84
2017-07-16T08:23:04.655Z,1019.77
2017-07-16T08:23:45.563Z,1019.83
2017-07-16T08:24:26.470Z,1019.82
2017-07-16T08:25:07.372Z,1019.76
2017-07-16T08:25:48.270Z,1019.8
2017-07-16T08:26:29.172Z,1019.78
2017-07-16T08:27:10.078Z,1019.78
2017-07-16T08:27:50.982Z,1019.78
2017-07-16T08:28:31.897Z,1019.71
2017-07-16T08:29:12.802Z,1019.8
2017-07-16T08:29:53.715Z,1019.82
2017-07-16T08:30:34.615Z,1019.78
2017-07-16T08:31:15.526Z,1019.73
2017-07-16T08:31:56.423Z,1019.76
2017-07-16T08:32:37.334Z,1019.7
2017-07-16T08:33:18.238Z,1019.73
2017-07-16T08:33:59.161Z,1019.73
2017-07-16T08:34:40.067Z,1019.72
2017-07-16T08:35:20.976Z,1019.73
2017-07-16T08:36:01.878Z,1019.73
2017-07-16T08:36:42.815Z,1019.73
2017-07-16T08:37:23.716Z,1019.77